createdAt,value
2023-12-07T00:01:16.265Z,3.70
2023-12-07T00:03:44.448Z,3.72
2023-12-07T00:06:12.769Z,3.70
2023-12-07T00:08:40.890Z,3.72
2023-12-07T00:11:09.162Z,3.80
2023-12-07T00:13:37.371Z,3.70
2023-12-07T00:16:06.210Z,3.78
2023-12-07T00:18:34.453Z,3.80
2023-12-07T00:21:02.880Z,3.72
2023-12-07T00:23:31.060Z,3.80
2023-12-07T00:25:59.543Z,3.78
2023-12-07T00:28:27.787Z,3.76
2023-12-07T00:30:55.896Z,3.72
2023-12-07T00:33:24.100Z,3.76
2023-12-07T00:35:52.335Z,3.70
2023-12-07T00:38:22.389Z,3.70
2023-12-07T00:40:50.456Z,3.80
2023-12-07T00:43:19.553Z,3.80
2023-12-07T00:45:47.640Z,3.74
2023-12-07T00:48:16.031Z,3.74
2023-12-07T00:50:44.309Z,3.70
2023-12-07T00:53:12.874Z,3.70
2023-12-07T00:55:41.536Z,3.80
2023-12-07T00:58:09.790Z,3.72
2023-12-07T01:00:38.628Z,3.70
2023-12-07T01:03:06.885Z,3.70
2023-12-07T01:05:36.326Z,3.70
2023-12-07T01:08:04.746Z,3.70
2023-12-07T01:10:33.681Z,3.70
2023-12-07T01:13:02.405Z,3.68
2023-12-07T01:15:31.026Z,3.68
2023-12-07T01:17:59.420Z,3.70
2023-12-07T01:20:27.613Z,3.64
2023-12-07T01:22:55.659Z,3.60
2023-12-07T01:25:24.250Z,3.70
2023-12-07T01:27:52.751Z,3.70
2023-12-07T01:30:20.910Z,3.70
2023-12-07T01:32:49.027Z,3.70
2023-12-07T01:35:17.449Z,3.74
2023-12-07T01:37:45.597Z,3.80
2023-12-07T01:40:16.110Z,3.72
2023-12-07T01:42:52.532Z,3.70
2023-12-07T01:45:21.129Z,3.70
2023-12-07T01:47:50.899Z,3.80
2023-12-07T01:50:19.065Z,3.88
2023-12-07T01:52:49.150Z,3.92
2023-12-07T01:55:17.372Z,3.90
2023-12-07T01:57:45.960Z,3.92
2023-12-07T02:00:15.150Z,4.00
2023-12-07T02:02:45.192Z,4.00
2023-12-07T02:05:14.419Z,4.00
2023-12-07T02:07:42.805Z,3.90
2023-12-07T02:10:14.705Z,3.90
2023-12-07T02:12:42.907Z,3.80
2023-12-07T02:15:12.556Z,3.80
2023-12-07T02:18:04.493Z,3.80
2023-12-07T02:20:58.853Z,3.70
2023-12-07T02:23:36.818Z,3.70
2023-12-07T02:26:32.859Z,3.80
2023-12-07T02:29:01.025Z,3.80
2023-12-07T02:31:29.450Z,3.80
2023-12-07T02:33:57.983Z,3.80
2023-12-07T02:36:26.188Z,3.80
2023-12-07T02:38:54.295Z,3.76
2023-12-07T02:41:22.371Z,3.70
2023-12-07T02:43:50.523Z,3.70
2023-12-07T02:46:19.461Z,3.70
2023-12-07T02:48:47.892Z,3.70
2023-12-07T02:51:15.982Z,3.70
2023-12-07T02:53:44.042Z,3.70
2023-12-07T02:56:12.289Z,3.70
2023-12-07T02:58:40.502Z,3.70
2023-12-07T03:01:09.640Z,3.70
2023-12-07T03:03:39.902Z,3.70
2023-12-07T03:06:08.909Z,3.70
2023-12-07T03:08:37.032Z,3.76
2023-12-07T03:11:06.369Z,3.72
2023-12-07T03:13:34.737Z,3.78
2023-12-07T03:16:03.045Z,3.70
2023-12-07T03:18:31.234Z,3.70
2023-12-07T03:20:59.524Z,3.70
2023-12-07T03:23:27.778Z,3.68
2023-12-07T03:25:57.019Z,3.70
2023-12-07T03:28:25.214Z,3.66
2023-12-07T03:30:54.006Z,3.70
2023-12-07T03:33:22.435Z,3.70
2023-12-07T03:35:50.587Z,3.68
2023-12-07T03:38:18.753Z,3.60
2023-12-07T03:40:49.331Z,3.64
2023-12-07T03:43:20.932Z,3.60
2023-12-07T03:45:48.969Z,3.60
2023-12-07T03:48:17.375Z,3.60
2023-12-07T03:50:45.621Z,3.60
2023-12-07T03:53:13.840Z,3.60
2023-12-07T03:55:42.669Z,3.60
2023-12-07T03:58:10.818Z,3.60
2023-12-07T04:00:39.257Z,3.60
2023-12-07T04:03:07.873Z,3.60
2023-12-07T04:05:36.123Z,3.60
2023-12-07T04:08:06.295Z,3.60
2023-12-07T04:10:34.397Z,3.60
2023-12-07T04:13:02.915Z,3.58
2023-12-07T04:15:31.442Z,3.60
2023-12-07T04:17:59.634Z,3.60
2023-12-07T04:20:27.991Z,3.60
2023-12-07T04:22:56.175Z,3.60
2023-12-07T04:25:24.373Z,3.64
2023-12-07T04:27:52.724Z,3.66
2023-12-07T04:30:20.804Z,3.60
2023-12-07T04:32:48.753Z,3.60
2023-12-07T04:35:16.941Z,3.60
2023-12-07T04:37:45.094Z,3.60
2023-12-07T04:40:13.707Z,3.60
2023-12-07T04:42:42.387Z,3.60
2023-12-07T04:45:10.824Z,3.66
2023-12-07T04:47:38.981Z,3.60
2023-12-07T04:50:07.397Z,3.60
2023-12-07T04:52:36.789Z,3.60
2023-12-07T04:55:07.551Z,3.60
2023-12-07T04:57:36.224Z,3.62
2023-12-07T05:00:07.851Z,3.60
2023-12-07T05:02:35.845Z,3.60
2023-12-07T05:05:04.566Z,3.58
2023-12-07T05:07:32.992Z,3.52
2023-12-07T05:10:01.303Z,3.50
2023-12-07T05:12:29.491Z,3.50
2023-12-07T05:14:57.629Z,3.50
2023-12-07T05:17:25.743Z,3.50
2023-12-07T05:19:53.913Z,3.50
2023-12-07T05:22:23.300Z,3.50
2023-12-07T05:24:51.743Z,3.50
2023-12-07T05:27:19.968Z,3.50
2023-12-07T05:29:47.954Z,3.50
2023-12-07T05:32:16.012Z,3.46
2023-12-07T05:34:44.078Z,3.50
2023-12-07T05:37:12.179Z,3.50
2023-12-07T05:39:40.246Z,3.50
2023-12-07T05:42:08.304Z,3.50
2023-12-07T05:44:36.380Z,3.50
2023-12-07T05:47:05.270Z,3.50
2023-12-07T05:49:33.660Z,3.50
2023-12-07T05:52:01.897Z,3.40
2023-12-07T05:54:30.042Z,3.50
2023-12-07T05:56:58.187Z,3.50
2023-12-07T05:59:26.346Z,3.60
2023-12-07T06:01:55.009Z,3.50
2023-12-07T06:04:23.221Z,3.60
2023-12-07T06:06:51.163Z,3.60
2023-12-07T06:09:19.379Z,3.58
2023-12-07T06:11:47.466Z,3.60
2023-12-07T06:14:15.705Z,3.60
2023-12-07T06:16:43.793Z,3.60
2023-12-07T06:19:12.065Z,3.60
2023-12-07T06:21:40.393Z,3.50
2023-12-07T06:24:08.595Z,3.50
2023-12-07T06:26:37.198Z,3.50
2023-12-07T06:29:05.313Z,3.50
2023-12-07T06:31:33.502Z,3.50
2023-12-07T06:34:02.371Z,3.52
2023-12-07T06:36:30.734Z,3.50
2023-12-07T06:38:59.445Z,3.50
2023-12-07T06:41:27.564Z,3.50
2023-12-07T06:43:57.038Z,3.50
2023-12-07T06:46:25.441Z,3.50
2023-12-07T06:48:53.601Z,3.50
2023-12-07T06:51:22.192Z,3.54
2023-12-07T06:53:50.804Z,3.60
2023-12-07T06:56:19.135Z,3.60
2023-12-07T06:58:47.366Z,3.60
2023-12-07T07:01:15.555Z,3.60
2023-12-07T07:03:43.819Z,3.60
2023-12-07T07:06:12.058Z,3.70
2023-12-07T07:08:40.037Z,3.70
2023-12-07T07:11:16.710Z,3.76
2023-12-07T07:13:45.325Z,3.70
2023-12-07T07:16:13.574Z,3.80
2023-12-07T07:18:41.713Z,3.80
2023-12-07T07:21:10.373Z,3.70
2023-12-07T07:23:39.022Z,3.70
2023-12-07T07:26:07.099Z,3.70
2023-12-07T07:28:35.978Z,3.70
2023-12-07T07:31:04.345Z,3.70
2023-12-07T07:33:33.213Z,3.70
2023-12-07T07:36:01.998Z,3.80
2023-12-07T07:38:30.264Z,3.80
2023-12-07T07:40:58.870Z,3.80
2023-12-07T07:43:27.062Z,3.88
2023-12-07T07:45:55.126Z,3.90
2023-12-07T07:48:23.552Z,3.90
2023-12-07T07:50:51.698Z,3.90
2023-12-07T07:53:19.875Z,3.90
2023-12-07T07:55:47.989Z,3.90
2023-12-07T07:58:19.292Z,4.00
2023-12-07T08:00:47.912Z,4.20
2023-12-07T08:03:15.943Z,4.30
2023-12-07T08:05:44.063Z,4.40
2023-12-07T08:08:14.992Z,4.60
2023-12-07T08:10:54.124Z,4.70
2023-12-07T08:13:28.771Z,4.80
2023-12-07T08:15:58.831Z,4.90
2023-12-07T08:18:28.060Z,5.08
2023-12-07T08:20:56.384Z,5.10
2023-12-07T08:23:24.403Z,4.90
2023-12-07T08:25:52.667Z,4.70
2023-12-07T08:28:21.114Z,4.62
2023-12-07T08:30:49.344Z,4.70
2023-12-07T08:33:17.480Z,4.60
2023-12-07T08:35:45.702Z,4.60
2023-12-07T08:38:14.225Z,4.60
2023-12-07T08:40:43.432Z,4.60
2023-12-07T08:43:11.757Z,4.50
2023-12-07T08:45:40.363Z,4.40
2023-12-07T08:48:08.634Z,4.30
2023-12-07T08:50:36.883Z,4.40
2023-12-07T08:53:05.726Z,4.50
2023-12-07T08:55:34.130Z,4.42
2023-12-07T08:58:04.525Z,4.50
2023-12-07T09:00:35.448Z,4.46
2023-12-07T09:03:03.622Z,4.50
2023-12-07T09:05:32.393Z,4.60
2023-12-07T09:08:00.975Z,4.60
2023-12-07T09:10:29.496Z,4.60
2023-12-07T09:12:57.778Z,4.60
2023-12-07T09:15:25.860Z,4.60
2023-12-07T09:17:54.063Z,4.64
2023-12-07T09:20:22.329Z,4.70
2023-12-07T09:22:50.599Z,4.58
2023-12-07T09:25:19.217Z,4.50
2023-12-07T09:27:49.097Z,4.70
2023-12-07T09:30:17.834Z,4.70
2023-12-07T09:32:46.828Z,4.82
2023-12-07T09:35:16.470Z,4.82
2023-12-07T09:37:45.598Z,4.90
2023-12-07T09:40:24.007Z,4.84
2023-12-07T09:42:52.994Z,4.80
2023-12-07T09:45:21.945Z,4.96
2023-12-07T09:47:51.863Z,5.04
2023-12-07T09:50:24.319Z,5.12
2023-12-07T09:53:03.835Z,4.90
2023-12-07T09:55:37.387Z,5.02
2023-12-07T09:58:08.309Z,5.18
2023-12-07T10:00:38.292Z,5.06
2023-12-07T10:03:09.623Z,5.00
2023-12-07T10:05:58.052Z,4.90
2023-12-07T10:08:28.744Z,4.80
2023-12-07T10:11:07.592Z,4.80
2023-12-07T10:13:36.783Z,4.88
2023-12-07T10:16:16.309Z,4.90
2023-12-07T10:18:45.451Z,4.94
2023-12-07T10:21:14.852Z,5.00
2023-12-07T10:23:49.428Z,5.10
2023-12-07T10:26:21.258Z,5.00
2023-12-07T10:28:55.104Z,4.86
2023-12-07T10:31:24.689Z,4.86
2023-12-07T10:33:53.267Z,4.90
2023-12-07T10:36:22.113Z,4.98
2023-12-07T10:38:52.647Z,4.90
2023-12-07T10:41:22.084Z,4.76
2023-12-07T10:43:58.404Z,4.70
2023-12-07T10:46:27.827Z,4.60
2023-12-07T10:48:57.617Z,4.56
2023-12-07T10:51:53.127Z,4.60
2023-12-07T10:54:23.419Z,4.50
2023-12-07T10:56:51.645Z,4.60
2023-12-07T10:59:27.270Z,4.60
2023-12-07T11:01:59.366Z,4.58
2023-12-07T11:04:28.377Z,4.46
2023-12-07T11:06:59.604Z,4.40
2023-12-07T11:09:30.236Z,4.30
2023-12-07T11:12:07.196Z,4.20
2023-12-07T11:14:35.231Z,4.40
2023-12-07T11:17:05.526Z,4.30
2023-12-07T11:19:34.655Z,4.40
2023-12-07T11:22:04.506Z,4.50
2023-12-07T11:24:32.779Z,4.50
2023-12-07T11:27:00.803Z,4.40
2023-12-07T11:29:33.037Z,4.48
2023-12-07T11:32:16.718Z,4.50
2023-12-07T11:34:47.998Z,4.40
2023-12-07T11:37:20.039Z,4.50
2023-12-07T11:39:48.536Z,4.50
2023-12-07T11:42:17.952Z,4.50
2023-12-07T11:44:50.273Z,4.40
2023-12-07T11:47:19.651Z,4.40
2023-12-07T11:49:48.405Z,4.40
2023-12-07T11:52:20.912Z,4.50
2023-12-07T11:54:50.002Z,4.44
2023-12-07T11:57:18.773Z,4.50
2023-12-07T11:59:49.209Z,4.50
2023-12-07T12:02:18.478Z,4.40
2023-12-07T12:04:46.645Z,4.40
2023-12-07T12:07:15.034Z,4.32
2023-12-07T12:09:43.142Z,4.40
2023-12-07T12:12:11.302Z,4.40
2023-12-07T12:14:39.462Z,4.40
2023-12-07T12:17:08.131Z,4.40
2023-12-07T12:19:38.040Z,4.30
2023-12-07T12:22:08.612Z,4.28
2023-12-07T12:24:37.343Z,4.14
2023-12-07T12:27:05.950Z,4.08
2023-12-07T12:29:35.770Z,4.16
2023-12-07T12:32:05.530Z,4.04
2023-12-07T12:34:35.591Z,4.14
2023-12-07T12:37:08.249Z,4.10
2023-12-07T12:39:36.734Z,4.00
2023-12-07T12:42:06.131Z,4.02
2023-12-07T12:44:37.448Z,4.12
2023-12-07T12:47:10.832Z,4.20
2023-12-07T12:49:45.366Z,4.20
2023-12-07T12:52:17.792Z,4.16
2023-12-07T12:54:46.729Z,4.16
2023-12-07T12:57:15.548Z,4.12
2023-12-07T12:59:44.160Z,4.10
2023-12-07T13:02:12.234Z,4.10
2023-12-07T13:04:42.601Z,4.16
2023-12-07T13:07:11.460Z,4.08
2023-12-07T13:09:40.588Z,4.20
2023-12-07T13:12:09.080Z,4.20
2023-12-07T13:14:39.589Z,4.10
2023-12-07T13:17:11.272Z,4.00
2023-12-07T13:19:39.549Z,4.12
2023-12-07T13:22:07.929Z,4.52
2023-12-07T13:24:36.809Z,4.58
2023-12-07T13:27:05.374Z,4.40
2023-12-07T13:29:36.564Z,4.20
2023-12-07T13:32:06.281Z,4.14
2023-12-07T13:34:35.350Z,4.10
2023-12-07T13:37:04.303Z,4.10
2023-12-07T13:39:33.239Z,4.10
2023-12-07T13:42:04.123Z,4.10
2023-12-07T13:44:34.350Z,4.10
2023-12-07T13:47:03.214Z,4.10
2023-12-07T13:49:33.763Z,4.00
2023-12-07T13:52:08.174Z,4.04
2023-12-07T13:57:09.319Z,3.90
2023-12-07T13:59:38.938Z,3.88
2023-12-07T14:02:07.189Z,3.80
2023-12-07T14:04:35.704Z,3.78
2023-12-07T14:07:14.218Z,3.90
2023-12-07T14:09:53.357Z,3.90
2023-12-07T14:12:27.312Z,3.80
2023-12-07T14:14:58.681Z,3.80
2023-12-07T14:17:34.836Z,3.80
2023-12-07T14:20:16.434Z,3.90
2023-12-07T14:22:57.577Z,3.80
2023-12-07T14:25:26.017Z,3.90
2023-12-07T14:27:54.247Z,3.88
2023-12-07T14:30:23.576Z,3.90
2023-12-07T14:32:54.837Z,3.86
2023-12-07T14:35:23.582Z,3.80
2023-12-07T14:37:51.969Z,3.86
2023-12-07T14:40:20.344Z,3.80
2023-12-07T14:42:48.759Z,3.80
2023-12-07T14:45:17.381Z,3.80
2023-12-07T14:47:47.475Z,3.78
2023-12-07T14:50:16.247Z,3.70
2023-12-07T14:52:44.589Z,3.70
2023-12-07T14:55:12.603Z,3.70
2023-12-07T14:57:40.691Z,3.80
2023-12-07T15:00:09.983Z,3.84
2023-12-07T15:02:38.346Z,3.80
2023-12-07T15:05:09.375Z,3.70
2023-12-07T15:07:37.519Z,3.80
2023-12-07T15:10:06.473Z,3.80
2023-12-07T15:12:34.866Z,3.70
2023-12-07T15:15:07.211Z,3.74
2023-12-07T15:17:35.806Z,3.80
2023-12-07T15:20:05.338Z,3.80
2023-12-07T15:22:33.933Z,3.78
2023-12-07T15:25:03.498Z,3.80
2023-12-07T15:27:31.714Z,3.80
2023-12-07T15:29:59.778Z,3.76
2023-12-07T15:32:28.649Z,3.78
2023-12-07T15:35:00.063Z,3.80
2023-12-07T15:37:28.682Z,3.70
2023-12-07T15:39:56.709Z,3.70
2023-12-07T15:42:25.096Z,3.60
2023-12-07T15:44:53.565Z,3.60
2023-12-07T15:47:22.100Z,3.50
2023-12-07T15:49:50.294Z,3.50
2023-12-07T15:52:18.333Z,3.42
2023-12-07T15:54:46.663Z,3.40
2023-12-07T15:57:15.037Z,3.50
2023-12-07T15:59:43.324Z,3.50
2023-12-07T16:02:11.707Z,3.50
2023-12-07T16:04:40.895Z,3.54
2023-12-07T16:07:10.763Z,3.60
2023-12-07T16:09:40.340Z,3.60
2023-12-07T16:12:09.419Z,3.60
2023-12-07T16:14:39.254Z,3.60
2023-12-07T16:17:09.315Z,3.60
2023-12-07T16:19:38.599Z,3.60
2023-12-07T16:22:07.389Z,3.60
2023-12-07T16:24:36.929Z,3.60
2023-12-07T16:27:08.094Z,3.70
2023-12-07T16:29:40.406Z,3.60
2023-12-07T16:32:08.615Z,3.70
2023-12-07T16:34:37.366Z,3.70
2023-12-07T16:37:06.711Z,3.60
2023-12-07T16:39:34.929Z,3.56
2023-12-07T16:42:03.817Z,3.50
2023-12-07T18:40:49.027Z,3.20
2023-12-07T18:43:20.509Z,3.12
2023-12-07T18:45:49.400Z,3.06
2023-12-07T18:48:20.246Z,3.18
2023-12-07T18:50:49.267Z,3.18
2023-12-07T18:53:17.793Z,3.22
2023-12-07T18:55:46.136Z,3.28
2023-12-07T18:58:14.436Z,3.30
2023-12-07T19:00:43.265Z,3.30
2023-12-07T19:03:11.631Z,3.20
2023-12-07T19:05:43.101Z,3.22
2023-12-07T19:08:12.383Z,3.20
2023-12-07T19:10:44.636Z,3.20
2023-12-07T19:13:12.938Z,3.20
2023-12-07T19:15:42.719Z,3.20
2023-12-07T19:18:11.488Z,3.20
2023-12-07T19:20:39.664Z,3.20
2023-12-07T19:23:10.639Z,3.20
2023-12-07T19:25:39.014Z,3.10
2023-12-07T19:28:07.349Z,3.10
2023-12-07T19:30:35.590Z,3.10
2023-12-07T19:33:06.568Z,3.20
2023-12-07T19:35:35.530Z,3.20
2023-12-07T19:38:04.285Z,3.18
2023-12-07T19:40:35.601Z,3.20
2023-12-07T19:43:03.875Z,3.20
2023-12-07T19:45:31.945Z,3.10
2023-12-07T19:48:00.228Z,3.10
2023-12-07T19:50:29.638Z,3.10
2023-12-07T19:52:57.980Z,3.18
2023-12-07T19:55:31.500Z,3.20
2023-12-07T19:58:00.792Z,3.26
2023-12-07T20:00:28.989Z,3.22
2023-12-07T20:02:57.218Z,3.22
2023-12-07T20:05:25.688Z,3.30
2023-12-07T20:07:56.811Z,3.30
2023-12-07T20:10:24.965Z,3.22
2023-12-07T20:12:53.166Z,3.20
2023-12-07T20:15:21.700Z,3.20
2023-12-07T20:17:49.992Z,3.20
2023-12-07T20:20:18.476Z,3.30
2023-12-07T20:22:47.100Z,3.30
2023-12-07T20:25:15.195Z,3.20
2023-12-07T20:27:43.290Z,3.20
2023-12-07T20:30:11.868Z,3.30
2023-12-07T20:32:42.441Z,3.20
2023-12-07T20:35:10.665Z,3.20
2023-12-07T20:37:39.512Z,3.10
2023-12-07T20:40:08.633Z,3.10
2023-12-07T20:42:36.741Z,3.08
2023-12-07T20:45:08.566Z,3.10
2023-12-07T20:47:37.068Z,3.02
2023-12-07T20:50:06.432Z,3.00
2023-12-07T20:52:34.511Z,3.00
2023-12-07T20:55:02.778Z,3.10
2023-12-07T20:57:31.217Z,3.10
2023-12-07T20:59:59.537Z,3.10
2023-12-07T21:02:28.092Z,3.00
2023-12-07T21:04:56.353Z,2.92
2023-12-07T21:07:24.843Z,2.90
2023-12-07T21:09:53.171Z,2.90
2023-12-07T21:12:21.264Z,2.80
2023-12-07T21:14:49.403Z,2.86
2023-12-07T21:17:20.104Z,2.90
2023-12-07T21:19:48.822Z,2.92
2023-12-07T21:22:17.089Z,2.96
2023-12-07T21:24:45.216Z,3.00
2023-12-07T21:27:13.268Z,3.00
2023-12-07T21:29:41.762Z,3.04
2023-12-07T21:32:09.883Z,3.00
2023-12-07T21:34:41.883Z,3.00
2023-12-07T21:37:11.694Z,3.10
2023-12-07T21:39:40.337Z,3.00
2023-12-07T21:42:08.565Z,2.90
2023-12-07T21:44:36.710Z,2.94
2023-12-07T21:47:07.125Z,2.90
2023-12-07T21:49:35.684Z,2.88
2023-12-07T21:52:04.996Z,2.80
2023-12-07T21:54:33.095Z,2.80
2023-12-07T21:57:01.474Z,2.80
2023-12-07T21:59:29.722Z,2.80
2023-12-07T22:01:57.753Z,2.70
2023-12-07T22:04:26.282Z,2.78
2023-12-07T22:06:54.330Z,2.86
2023-12-07T22:09:24.165Z,2.82
2023-12-07T22:11:52.778Z,2.80
2023-12-07T22:14:21.172Z,2.82
2023-12-07T22:16:49.326Z,2.90
2023-12-07T22:19:17.711Z,2.82
2023-12-07T22:21:46.177Z,2.80
2023-12-07T22:24:14.452Z,2.78
2023-12-07T22:26:42.616Z,2.70
2023-12-07T22:29:11.568Z,2.66
2023-12-07T22:31:39.769Z,2.62
2023-12-07T22:34:08.630Z,2.70
2023-12-07T22:36:36.960Z,2.60
2023-12-07T22:39:05.816Z,2.50
2023-12-07T22:41:34.209Z,2.40
2023-12-07T22:44:02.360Z,2.40
2023-12-07T22:46:30.573Z,2.34
2023-12-07T22:48:58.800Z,2.30
2023-12-07T22:51:27.356Z,2.26
2023-12-07T22:53:55.531Z,2.30
2023-12-07T22:56:23.780Z,2.30
2023-12-07T22:58:52.239Z,2.30
2023-12-07T23:01:20.376Z,2.36
2023-12-07T23:03:48.526Z,2.40
2023-12-07T23:06:16.703Z,2.40
2023-12-07T23:08:45.329Z,2.42
2023-12-07T23:11:14.078Z,2.46
2023-12-07T23:13:42.145Z,2.50
2023-12-07T23:16:10.661Z,2.50
2023-12-07T23:18:39.083Z,2.46
2023-12-07T23:21:12.695Z,2.50
2023-12-07T23:23:41.030Z,2.52
2023-12-07T23:26:12.535Z,2.50
2023-12-07T23:28:40.708Z,2.50
2023-12-07T23:31:08.895Z,2.40
2023-12-07T23:33:37.376Z,2.40
2023-12-07T23:36:06.647Z,2.40
2023-12-07T23:38:35.004Z,2.34
2023-12-07T23:41:03.311Z,2.40
2023-12-07T23:43:31.417Z,2.40
2023-12-07T23:45:59.520Z,2.40
2023-12-07T23:48:27.762Z,2.40
2023-12-07T23:50:55.986Z,2.40
2023-12-07T23:53:24.096Z,2.50
2023-12-07T23:55:52.284Z,2.50
2023-12-07T23:58:20.442Z,2.50
